sensor_id;sensor_type;location;lat;lon;timestamp;temperature;humidity
16116;DHT22;8162;47.104;15.432;2023-01-16T00:00:20;4.80;92.50
16116;DHT22;8162;47.104;15.432;2023-01-16T00:02:46;4.80;92.30
16116;DHT22;8162;47.104;15.432;2023-01-16T00:05:11;4.80;92.80
16116;DHT22;8162;47.104;15.432;2023-01-16T00:07:37;4.80;92.60
16116;DHT22;8162;47.104;15.432;2023-01-16T00:10:04;4.80;92.30
16116;DHT22;8162;47.104;15.432;2023-01-16T00:12:30;4.80;92.90
16116;DHT22;8162;47.104;15.432;2023-01-16T00:14:56;4.80;91.10
16116;DHT22;8162;47.104;15.432;2023-01-16T00:17:22;4.80;91.50
16116;DHT22;8162;47.104;15.432;2023-01-16T00:19:47;4.80;92.50
16116;DHT22;8162;47.104;15.432;2023-01-16T00:22:13;4.80;92.80
16116;DHT22;8162;47.104;15.432;2023-01-16T00:24:39;4.80;91.80
16116;DHT22;8162;47.104;15.432;2023-01-16T00:27:04;4.70;91.40
16116;DHT22;8162;47.104;15.432;2023-01-16T00:29:30;4.70;92.80
16116;DHT22;8162;47.104;15.432;2023-01-16T00:31:56;4.70;92.50
16116;DHT22;8162;47.104;15.432;2023-01-16T00:34:22;4.80;93.60
16116;DHT22;8162;47.104;15.432;2023-01-16T00:36:48;4.80;93.50
16116;DHT22;8162;47.104;15.432;2023-01-16T00:39:14;4.70;91.70
16116;DHT22;8162;47.104;15.432;2023-01-16T00:41:40;4.70;93.20
16116;DHT22;8162;47.104;15.432;2023-01-16T00:44:05;4.70;93.20
16116;DHT22;8162;47.104;15.432;2023-01-16T00:46:31;4.70;94.00
16116;DHT22;8162;47.104;15.432;2023-01-16T00:48:57;4.70;93.60
16116;DHT22;8162;47.104;15.432;2023-01-16T00:51:23;4.70;93.90
16116;DHT22;8162;47.104;15.432;2023-01-16T00:53:48;4.70;94.50
16116;DHT22;8162;47.104;15.432;2023-01-16T00:56:14;4.70;94.20
16116;DHT22;8162;47.104;15.432;2023-01-16T00:58:40;4.70;94.30
16116;DHT22;8162;47.104;15.432;2023-01-16T01:01:05;4.70;94.60
16116;DHT22;8162;47.104;15.432;2023-01-16T01:03:31;4.70;94.60
16116;DHT22;8162;47.104;15.432;2023-01-16T01:05:57;4.70;94.60
16116;DHT22;8162;47.104;15.432;2023-01-16T01:08:23;4.70;95.00
16116;DHT22;8162;47.104;15.432;2023-01-16T01:10:49;4.70;94.50
16116;DHT22;8162;47.104;15.432;2023-01-16T01:13:15;4.70;94.40
16116;DHT22;8162;47.104;15.432;2023-01-16T01:15:41;4.70;94.60
16116;DHT22;8162;47.104;15.432;2023-01-16T01:18:07;4.70;94.30
16116;DHT22;8162;47.104;15.432;2023-01-16T01:20:32;4.70;94.70
16116;DHT22;8162;47.104;15.432;2023-01-16T01:22:58;4.70;94.80
16116;DHT22;8162;47.104;15.432;2023-01-16T01:25:24;4.70;94.60
16116;DHT22;8162;47.104;15.432;2023-01-16T01:27:50;4.70;94.30
16116;DHT22;8162;47.104;15.432;2023-01-16T01:30:16;4.70;94.60
16116;DHT22;8162;47.104;15.432;2023-01-16T01:32:42;4.70;93.20
16116;DHT22;8162;47.104;15.432;2023-01-16T01:35:08;4.70;90.80
16116;DHT22;8162;47.104;15.432;2023-01-16T01:37:34;4.60;92.70
16116;DHT22;8162;47.104;15.432;2023-01-16T01:40:01;4.50;89.20
16116;DHT22;8162;47.104;15.432;2023-01-16T01:42:27;4.50;89.40
16116;DHT22;8162;47.104;15.432;2023-01-16T01:45:17;4.50;88.40
16116;DHT22;8162;47.104;15.432;2023-01-16T01:52:46;4.50;90.90
16116;DHT22;8162;47.104;15.432;2023-01-16T01:55:13;4.50;91.40
16116;DHT22;8162;47.104;15.432;2023-01-16T01:57:45;4.50;91.50
16116;DHT22;8162;47.104;15.432;2023-01-16T02:00:16;4.50;92.30
16116;DHT22;8162;47.104;15.432;2023-01-16T02:02:53;4.50;92.20
16116;DHT22;8162;47.104;15.432;2023-01-16T02:05:28;4.40;92.60
16116;DHT22;8162;47.104;15.432;2023-01-16T02:07:54;4.50;93.00
16116;DHT22;8162;47.104;15.432;2023-01-16T02:10:31;4.50;92.80
16116;DHT22;8162;47.104;15.432;2023-01-16T02:13:00;4.40;92.60
16116;DHT22;8162;47.104;15.432;2023-01-16T02:15:27;4.50;93.00
16116;DHT22;8162;47.104;15.432;2023-01-16T02:17:52;4.40;92.60
16116;DHT22;8162;47.104;15.432;2023-01-16T02:27:07;4.30;93.70
16116;DHT22;8162;47.104;15.432;2023-01-16T02:44:04;3.90;94.90
